createdAt,value
2023-02-28T06:57:59.946Z,6.97
2023-02-28T07:01:06.278Z,6.10
2023-02-28T07:04:12.024Z,8.25
2023-02-28T07:07:17.365Z,6.88
2023-02-28T07:10:22.585Z,6.15
2023-02-28T07:13:28.401Z,6.20
2023-02-28T07:16:34.751Z,6.60
2023-02-28T07:19:40.853Z,5.63
2023-02-28T07:22:46.104Z,7.05
2023-02-28T07:25:52.516Z,6.07
2023-02-28T07:28:58.090Z,5.63
2023-02-28T07:32:03.751Z,6.30
2023-02-28T07:35:09.623Z,6.32
2023-02-28T07:38:15.541Z,6.72
2023-02-28T07:41:23.126Z,6.82
2023-02-28T07:44:28.538Z,6.78
2023-02-28T07:47:34.306Z,7.18
2023-02-28T07:50:39.805Z,6.22
2023-02-28T07:53:46.036Z,6.20
2023-02-28T07:56:51.767Z,5.93
2023-02-28T07:59:57.231Z,6.25
2023-02-28T08:03:02.511Z,6.10
2023-02-28T08:06:09.818Z,6.75
2023-02-28T08:09:16.028Z,6.70
2023-02-28T08:12:21.772Z,6.60
2023-02-28T08:15:28.169Z,7.15
2023-02-28T08:18:35.350Z,6.43
2023-02-28T08:21:41.261Z,6.65
2023-02-28T08:24:47.017Z,6.65
2023-02-28T08:27:53.709Z,6.57
2023-02-28T08:30:59.394Z,6.22
2023-02-28T08:34:09.569Z,7.75
2023-02-28T08:37:15.403Z,6.07
2023-02-28T08:40:21.052Z,5.88
2023-02-28T08:43:26.316Z,6.40
2023-02-28T08:46:31.637Z,6.53
2023-02-28T08:49:38.978Z,6.65
2023-02-28T08:52:45.338Z,6.80
2023-02-28T08:56:08.228Z,6.40
2023-02-28T08:59:14.365Z,6.13
2023-02-28T09:02:19.987Z,6.07
2023-02-28T09:05:25.958Z,5.97
2023-02-28T09:08:32.337Z,6.28
2023-02-28T09:11:37.958Z,6.72
2023-02-28T09:14:43.529Z,6.35
2023-02-28T09:17:49.180Z,5.18
2023-02-28T09:20:54.993Z,6.10
2023-02-28T09:24:00.633Z,5.25
2023-02-28T09:27:07.022Z,5.82
2023-02-28T09:30:14.263Z,5.97
2023-02-28T09:33:22.176Z,6.00
2023-02-28T09:36:41.894Z,5.93
2023-02-28T09:39:50.362Z,6.22
2023-02-28T09:42:58.308Z,6.00
2023-02-28T09:46:29.407Z,6.18
2023-02-28T09:49:41.310Z,5.63
2023-02-28T09:55:59.580Z,5.57
2023-02-28T09:59:32.130Z,5.32
2023-02-28T10:02:37.277Z,6.13
2023-02-28T10:06:05.133Z,5.82
2023-02-28T10:09:24.938Z,5.53
2023-02-28T10:12:32.618Z,5.30
2023-02-28T10:15:40.333Z,6.40
2023-02-28T10:18:52.952Z,5.47
2023-02-28T10:22:02.933Z,6.05
2023-02-28T10:25:24.655Z,6.28
2023-02-28T10:28:34.418Z,4.82
2023-02-28T10:31:41.107Z,6.78
2023-02-28T10:34:58.766Z,5.05
2023-02-28T10:38:22.761Z,5.22
2023-02-28T10:41:37.676Z,6.40
2023-02-28T10:44:43.592Z,6.15
2023-02-28T10:47:59.982Z,5.90
2023-02-28T10:51:09.698Z,6.65
2023-02-28T10:54:23.902Z,5.63
2023-02-28T10:57:32.176Z,6.35
2023-02-28T11:00:37.953Z,7.22
2023-02-28T11:03:43.558Z,5.68
2023-02-28T11:06:58.825Z,5.80
2023-02-28T11:10:05.770Z,5.60
2023-02-28T11:13:20.480Z,5.78
2023-02-28T11:16:38.518Z,5.63
2023-02-28T11:19:52.673Z,6.53
2023-02-28T11:23:02.399Z,7.13
2023-02-28T11:26:10.981Z,6.72
2023-02-28T11:29:21.711Z,8.23
2023-02-28T11:32:32.031Z,7.15
2023-02-28T11:35:41.107Z,7.38
2023-02-28T11:38:48.256Z,6.78
2023-02-28T11:42:31.946Z,7.05
2023-02-28T11:45:56.829Z,6.65
2023-02-28T11:49:23.684Z,7.03
2023-02-28T11:52:46.970Z,7.00
2023-02-28T11:56:09.001Z,7.57
2023-02-28T11:59:40.591Z,6.97
2023-02-28T12:03:17.965Z,7.65
2023-02-28T12:06:28.012Z,5.75
2023-02-28T12:10:00.269Z,6.50
2023-02-28T12:13:23.300Z,8.55
2023-02-28T12:16:52.403Z,6.88
2023-02-28T12:20:19.000Z,7.05
2023-02-28T12:23:46.497Z,6.75
2023-02-28T12:26:54.473Z,7.00
2023-02-28T12:30:17.856Z,7.20
2023-02-28T12:33:30.506Z,7.20
2023-02-28T12:36:38.070Z,6.65
2023-02-28T12:39:51.110Z,7.20
2023-02-28T12:43:03.507Z,8.82
2023-02-28T12:46:14.124Z,7.03
2023-02-28T12:49:28.658Z,7.40
2023-02-28T12:52:41.792Z,6.78
2023-02-28T12:56:18.544Z,6.20
2023-02-28T12:59:55.742Z,6.28
2023-02-28T13:03:21.066Z,5.35
2023-02-28T13:06:35.296Z,6.50
2023-02-28T13:09:41.593Z,5.43
2023-02-28T13:12:53.526Z,5.97
2023-02-28T13:16:06.731Z,5.80
2023-02-28T13:19:12.985Z,5.45
2023-02-28T13:22:26.989Z,5.47
2023-02-28T13:25:35.246Z,6.43
2023-02-28T13:28:54.501Z,6.38
2023-02-28T13:32:09.539Z,5.60
2023-02-28T13:35:34.997Z,6.25
2023-02-28T13:38:49.104Z,6.50
2023-02-28T13:41:54.806Z,5.93
2023-02-28T13:45:03.302Z,6.25
2023-02-28T13:48:26.524Z,6.05
2023-02-28T13:51:43.060Z,5.95
2023-02-28T15:40:14.448Z,6.20
2023-02-28T15:43:27.231Z,5.80
2023-02-28T15:46:32.145Z,7.28
2023-02-28T15:50:01.984Z,7.40
2023-02-28T15:53:25.064Z,5.82
2023-02-28T15:56:34.340Z,7.68
2023-02-28T15:59:40.166Z,7.15
2023-02-28T16:02:45.840Z,7.03
2023-02-28T16:06:18.267Z,6.55
2023-02-28T16:09:24.133Z,8.38
2023-02-28T16:12:36.244Z,7.05
2023-02-28T16:15:44.703Z,7.97
2023-02-28T16:18:50.324Z,8.80
2023-02-28T16:21:55.483Z,8.00
2023-02-28T16:25:00.661Z,8.73
2023-02-28T16:28:17.468Z,7.30
2023-02-28T16:31:22.807Z,8.48
2023-02-28T16:34:28.602Z,8.60
2023-02-28T16:37:33.572Z,9.55
2023-02-28T16:40:39.337Z,8.02
2023-02-28T16:43:45.563Z,7.80
2023-02-28T16:46:50.836Z,8.57
2023-02-28T16:49:56.153Z,7.40
2023-02-28T16:53:02.062Z,7.60
2023-02-28T16:56:08.157Z,8.32
2023-02-28T16:59:14.654Z,7.00
2023-02-28T17:02:20.779Z,7.45
2023-02-28T17:05:28.213Z,7.07
2023-02-28T17:08:33.768Z,7.85
2023-02-28T17:11:39.411Z,7.53
2023-02-28T17:14:44.468Z,6.93
2023-02-28T17:17:51.214Z,7.40
2023-02-28T17:20:56.766Z,6.70
2023-02-28T17:24:02.140Z,6.95
2023-02-28T17:27:10.769Z,6.88
2023-02-28T17:30:20.004Z,6.75
2023-02-28T17:33:25.424Z,6.95
2023-02-28T17:36:30.690Z,7.05
2023-02-28T17:39:36.178Z,8.02
2023-02-28T17:42:41.466Z,7.55
2023-02-28T17:45:46.934Z,7.63
2023-02-28T17:48:54.188Z,9.07
2023-02-28T17:51:59.867Z,8.07
2023-02-28T17:55:05.923Z,9.05
2023-02-28T17:58:13.885Z,8.93
2023-02-28T18:01:19.651Z,10.05
2023-02-28T18:04:27.815Z,10.80
2023-02-28T18:07:33.119Z,9.55
2023-02-28T18:10:38.725Z,11.73
2023-02-28T18:13:47.180Z,9.20
2023-02-28T18:16:54.233Z,11.50
2023-02-28T18:20:00.514Z,11.52
2023-02-28T18:23:05.830Z,10.52
2023-02-28T18:26:11.198Z,11.27
2023-02-28T18:29:22.915Z,9.75
2023-02-28T18:32:30.279Z,9.90
2023-02-28T18:35:35.905Z,11.35
2023-02-28T18:38:41.361Z,9.57
2023-02-28T18:41:47.290Z,9.52
2023-02-28T18:44:52.754Z,12.38
2023-02-28T18:47:58.833Z,10.70
2023-02-28T18:51:12.289Z,10.93
2023-02-28T18:54:17.810Z,12.18
2023-02-28T18:57:23.349Z,10.90
2023-02-28T19:00:28.847Z,10.90
2023-02-28T19:03:34.253Z,11.70
2023-02-28T19:06:40.411Z,10.48
2023-02-28T19:09:45.702Z,9.35
2023-02-28T19:12:51.131Z,8.77
2023-02-28T19:16:06.128Z,9.40
2023-02-28T19:19:11.448Z,9.55
2023-02-28T19:22:16.924Z,8.95
2023-02-28T19:25:24.243Z,8.80
2023-02-28T19:28:33.331Z,10.25
2023-02-28T19:31:38.576Z,9.85
2023-02-28T19:34:43.612Z,9.75
2023-02-28T19:37:48.559Z,10.45
2023-02-28T19:41:07.995Z,9.77
2023-02-28T19:44:13.903Z,9.38
2023-02-28T19:47:19.140Z,10.25
2023-02-28T19:50:24.739Z,13.65
2023-02-28T19:53:31.324Z,11.57
2023-02-28T19:56:36.937Z,13.45
2023-02-28T19:59:42.448Z,14.55
2023-02-28T20:02:47.961Z,14.32
2023-02-28T20:06:19.297Z,17.08
2023-02-28T20:09:24.792Z,14.85
2023-02-28T20:12:31.501Z,14.48
2023-02-28T20:15:38.731Z,12.40
2023-02-28T20:18:46.180Z,11.30
2023-02-28T20:21:52.392Z,11.88
2023-02-28T20:24:58.063Z,13.43
2023-02-28T20:28:04.158Z,13.82
2023-02-28T20:31:22.720Z,12.88
2023-02-28T20:34:28.748Z,15.40
2023-02-28T20:37:34.286Z,15.68
2023-02-28T20:40:40.790Z,14.93
2023-02-28T20:43:46.922Z,18.98
2023-02-28T20:46:52.675Z,17.00
2023-02-28T20:49:58.845Z,17.25
2023-02-28T20:53:04.695Z,18.10
2023-02-28T20:56:19.028Z,16.58
2023-02-28T20:59:24.568Z,15.90
2023-02-28T21:02:30.539Z,14.90
2023-02-28T21:05:36.528Z,13.77
2023-02-28T21:08:43.446Z,15.55
2023-02-28T21:11:49.899Z,19.17
2023-02-28T21:14:55.576Z,13.85
2023-02-28T21:18:01.091Z,12.57
2023-02-28T21:21:08.872Z,11.68
2023-02-28T21:24:17.632Z,10.73
2023-02-28T21:27:23.269Z,11.82
2023-02-28T21:30:28.800Z,11.82
2023-02-28T21:33:35.864Z,11.38
2023-02-28T21:36:47.574Z,11.82
2023-02-28T21:39:53.048Z,10.77
2023-02-28T21:42:58.479Z,10.98
2023-02-28T21:46:06.479Z,11.55
2023-02-28T21:49:12.795Z,10.73
2023-02-28T21:52:22.365Z,11.52
2023-02-28T21:55:27.844Z,11.38
2023-02-28T21:58:33.301Z,10.90
2023-02-28T22:01:43.782Z,14.43
2023-02-28T22:04:49.910Z,11.52
2023-02-28T22:07:55.359Z,11.38
2023-02-28T22:11:04.997Z,11.52
2023-02-28T22:14:12.569Z,12.27
2023-02-28T22:17:18.380Z,11.93
2023-02-28T22:20:24.389Z,13.20
2023-02-28T22:23:30.454Z,12.32
2023-02-28T22:26:36.487Z,12.35
2023-02-28T22:29:41.740Z,12.38
2023-02-28T22:32:47.088Z,12.65
2023-02-28T22:35:53.239Z,13.07
2023-02-28T22:39:01.037Z,12.07
2023-02-28T22:42:15.844Z,12.15
2023-02-28T22:45:21.574Z,13.32
2023-02-28T22:48:26.998Z,12.95
2023-02-28T22:51:32.560Z,13.52
2023-02-28T22:54:38.224Z,11.95
2023-02-28T22:57:43.890Z,13.15
2023-02-28T23:00:49.785Z,12.00
2023-02-28T23:03:55.634Z,11.02
2023-02-28T23:07:01.453Z,11.43
2023-02-28T23:10:18.585Z,11.20
2023-02-28T23:13:23.856Z,10.73
2023-02-28T23:16:36.357Z,11.07
2023-02-28T23:22:50.932Z,8.98
2023-02-28T23:25:56.630Z,10.55
2023-02-28T23:29:02.154Z,9.32
2023-02-28T23:32:08.517Z,8.75
2023-02-28T23:35:14.307Z,8.90
2023-02-28T23:38:19.971Z,8.70
2023-02-28T23:41:26.424Z,9.15
2023-02-28T23:44:32.130Z,8.52
2023-02-28T23:47:37.901Z,8.73
2023-02-28T23:50:43.728Z,8.18
2023-02-28T23:53:51.743Z,8.23
2023-02-28T23:56:57.159Z,8.88
